Observation data for Hart on 01/20/2019      Previous  Date       Current Mesonet Observations  Soil Data  Daily Summary Page  Observations in Plain Language
KHRS 200600Z 16005KT M03/M05 A3026 RMK A01 T10251054  RH  081%=      5-min Rain = 0
KHRS 200605Z 17005KT M03/M05 A3026 RMK A01 T10251054  RH  082%=      5-min Rain = 0
KHRS 200610Z 16005KT M03/M05 A3027 RMK A01 T10251054  RH  081%=      5-min Rain = 0
KHRS 200615Z 16004KT M03/M05 A3027 RMK A01 T10251054  RH  081%=      5-min Rain = 0
KHRS 200620Z 17004KT M03/M06 A3026 RMK A01 T10261055  RH  081%=      5-min Rain = 0
KHRS 200625Z 17005KT M03/M06 A3026 RMK A01 T10271056  RH  082%=      5-min Rain = 0
KHRS 200630Z 17005KT M03/M06 A3026 RMK A01 T10281057  RH  082%=      5-min Rain = 0
KHRS 200635Z 17005KT M03/M06 A3025 RMK A01 T10301058  RH  082%=      5-min Rain = 0
KHRS 200640Z 17005KT M03/M06 A3025 RMK A01 T10311057  RH  083%=      5-min Rain = 0
KHRS 200645Z 17005KT M03/M06 A3025 RMK A01 T10321057  RH  083%=      5-min Rain = 0
KHRS 200650Z 17005KT M03/M06 A3025 RMK A01 T10331058  RH  084%=      5-min Rain = 0
KHRS 200655Z 16005KT M03/M06 A3025 RMK A01 T10331057  RH  084%=      5-min Rain = 0
KHRS 200700Z 16005KT M03/M06 A3025 RMK A01 T10341058  RH  085%=      5-min Rain = 0
KHRS 200705Z 17005KT M03/M06 A3025 RMK A01 T10331055  RH  086%=      5-min Rain = 0
KHRS 200710Z 17005KT M03/M05 A3025 RMK A01 T10301053  RH  085%=      5-min Rain = 0
KHRS 200715Z 17005KT M03/M05 A3025 RMK A01 T10301053  RH  085%=      5-min Rain = 0
KHRS 200720Z 17005KT M03/M05 A3026 RMK A01 T10291053  RH  085%=      5-min Rain = 0
KHRS 200725Z 17005KT M03/M05 A3026 RMK A01 T10291053  RH  085%=      5-min Rain = 0
KHRS 200730Z 17005KT M03/M05 A3026 RMK A01 T10291053  RH  085%=      5-min Rain = 0
KHRS 200735Z 17005KT M03/M05 A3026 RMK A01 T10301053  RH  085%=      5-min Rain = 0
KHRS 200740Z 17006KT M03/M05 A3025 RMK A01 T10311054  RH  085%=      5-min Rain = 0
KHRS 200745Z 18005KT M03/M05 A3025 RMK A01 T10311054  RH  085%=      5-min Rain = 0
KHRS 200750Z 17005KT M03/M05 A3025 RMK A01 T10301051  RH  086%=      5-min Rain = 0
KHRS 200755Z 17005KT M03/M05 A3025 RMK A01 T10291050  RH  086%=      5-min Rain = 0
KHRS 200800Z 16005KT M03/M05 A3025 RMK A01 T10301054  RH  085%=      5-min Rain = 0
KHRS 200805Z 16005KT M04/M06 A3025 RMK A01 T10351058  RH  085%=      5-min Rain = 0
KHRS 200810Z 16005KT M04/M06 A3026 RMK A01 T10371058  RH  086%=      5-min Rain = 0
KHRS 200815Z 17006KT M04/M06 A3025 RMK A01 T10371057  RH  087%=      5-min Rain = 0
KHRS 200820Z 17005KT M03/M05 A3026 RMK A01 T10341054  RH  087%=      5-min Rain = 0
KHRS 200825Z 17004KT M03/M05 A3026 RMK A01 T10331053  RH  087%=      5-min Rain = 0
KHRS 200830Z 18005KT M03/M05 A3026 RMK A01 T10321054  RH  086%=      5-min Rain = 0
KHRS 200835Z 19006KT M03/M05 A3026 RMK A01 T10311052  RH  087%=      5-min Rain = 0
KHRS 200840Z 19006KT M03/M05 A3026 RMK A01 T10281049  RH  086%=      5-min Rain = 0
KHRS 200845Z 18005KT M03/M05 A3026 RMK A01 T10311052  RH  086%=      5-min Rain = 0
KHRS 200850Z 18005KT M03/M05 A3026 RMK A01 T10311051  RH  087%=      5-min Rain = 0
KHRS 200855Z 18006KT M03/M05 A3025 RMK A01 T10291049  RH  087%=      5-min Rain = 0
KHRS 200900Z 18007KT M03/M05 A3025 RMK A01 T10261047  RH  086%=      5-min Rain = 0
KHRS 200905Z 18008KT M02/M05 A3025 RMK A01 T10231046  RH  085%=      5-min Rain = 0
KHRS 200910Z 18007KT M02/M05 A3025 RMK A01 T10211046  RH  084%=      5-min Rain = 0
KHRS 200915Z 19008KT M02/M05 A3025 RMK A01 T10221047  RH  084%=      5-min Rain = 0
KHRS 200920Z 18007KT M02/M05 A3025 RMK A01 T10241047  RH  085%=      5-min Rain = 0
KHRS 200925Z 19008KT M02/M05 A3025 RMK A01 T10241048  RH  085%=      5-min Rain = 0
KHRS 200930Z 19008KT M03/M05 A3024 RMK A01 T10261048  RH  085%=      5-min Rain = 0
KHRS 200935Z 18008KT M03/M05 A3024 RMK A01 T10251047  RH  086%=      5-min Rain = 0
KHRS 200940Z 18007KT M02/M05 A3024 RMK A01 T10241047  RH  085%=      5-min Rain = 0
KHRS 200945Z 18008KT M03/M05 A3024 RMK A01 T10251047  RH  085%=      5-min Rain = 0
KHRS 200950Z 18008KT M03/M05 A3024 RMK A01 T10251047  RH  085%=      5-min Rain = 0
KHRS 200955Z 18008KT M02/M05 A3024 RMK A01 T10241047  RH  085%=      5-min Rain = 0
KHRS 201000Z 18008KT M02/M05 A3024 RMK A01 T10241046  RH  086%=      5-min Rain = 0
KHRS 201005Z 18007KT M02/M05 A3023 RMK A01 T10241046  RH  085%=      5-min Rain = 0
KHRS 201010Z 18007KT M02/M05 A3023 RMK A01 T10241046  RH  086%=      5-min Rain = 0
KHRS 201015Z 18007KT M02/M05 A3023 RMK A01 T10241046  RH  086%=      5-min Rain = 0
KHRS 201020Z 18007KT M02/M05 A3023 RMK A01 T10241046  RH  086%=      5-min Rain = 0
KHRS 201025Z 17006KT M03/M05 A3023 RMK A01 T10251046  RH  086%=      5-min Rain = 0
KHRS 201030Z 18007KT M03/M05 A3023 RMK A01 T10261047  RH  086%=      5-min Rain = 0
KHRS 201035Z 18008KT M03/M05 A3023 RMK A01 T10251046  RH  087%=      5-min Rain = 0
KHRS 201040Z 16007KT M03/M05 A3023 RMK A01 T10251046  RH  086%=      5-min Rain = 0
KHRS 201045Z 17006KT M03/M05 A3023 RMK A01 T10271049  RH  086%=      5-min Rain = 0
KHRS 201050Z 16007KT M03/M05 A3023 RMK A01 T10301050  RH  087%=      5-min Rain = 0
KHRS 201055Z 17008KT M03/M05 A3022 RMK A01 T10321050  RH  088%=      5-min Rain = 0
KHRS 201100Z 17008KT M03/M05 A3022 RMK A01 T10321049  RH  089%=      5-min Rain = 0
KHRS 201105Z 17008KT M03/M05 A3022 RMK A01 T10321049  RH  089%=      5-min Rain = 0
KHRS 201110Z 17008KT M03/M05 A3022 RMK A01 T10321049  RH  089%=      5-min Rain = 0
KHRS 201115Z 16007KT M03/M05 A3022 RMK A01 T10331050  RH  089%=      5-min Rain = 0
KHRS 201120Z 16007KT M04/M05 A3021 RMK A01 T10351051  RH  089%=      5-min Rain = 0
KHRS 201125Z 17007KT M04/M05 A3021 RMK A01 T10361052  RH  090%=      5-min Rain = 0
KHRS 201130Z 17006KT M04/M05 A3021 RMK A01 T10371052  RH  090%=      5-min Rain = 0
KHRS 201135Z 17006KT M04/M05 A3021 RMK A01 T10371052  RH  090%=      5-min Rain = 0
KHRS 201140Z 17006KT M04/M05 A3021 RMK A01 T10381053  RH  091%=      5-min Rain = 0
KHRS 201145Z 17006KT M04/M05 A3021 RMK A01 T10391053  RH  091%=      5-min Rain = 0
KHRS 201150Z 18007KT M04/M05 A3021 RMK A01 T10391053  RH  091%=      5-min Rain = 0
KHRS 201155Z 17006KT M04/M05 A3021 RMK A01 T10381051  RH  092%=      5-min Rain = 0
KHRS 201200Z 18007KT M04/M05 A302 RMK A01 T10371050  RH  092%=      5-min Rain = 0
KHRS 201205Z 17005KT M04/M05 A302 RMK A01 T10361050  RH  091%=      5-min Rain = 0
KHRS 201210Z 18006KT M04/M05 A302 RMK A01 T10381051  RH  091%=      5-min Rain = 0
KHRS 201215Z 17006KT M04/M05 A302 RMK A01 T10371051  RH  091%=      5-min Rain = 0
KHRS 201220Z 18007KT M04/M05 A302 RMK A01 T10371050  RH  092%=      5-min Rain = 0
KHRS 201225Z 19008KT M03/M05 A302 RMK A01 T10341048  RH  091%=      5-min Rain = 0
KHRS 201230Z 19008KT M03/M05 A302 RMK A01 T10341048  RH  091%=      5-min Rain = 0
KHRS 201235Z 19008KT M03/M05 A302 RMK A01 T10331048  RH  091%=      5-min Rain = 0
KHRS 201240Z 19010KT M03/M05 A302 RMK A01 T10331048  RH  090%=      5-min Rain = 0
KHRS 201245Z 19010KT M03/M05 A302 RMK A01 T10331048  RH  090%=      5-min Rain = 0
KHRS 201250Z 19010KT M03/M05 A302 RMK A01 T10341048  RH  090%=      5-min Rain = 0
KHRS 201255Z 19010KT M03/M05 A302 RMK A01 T10341049  RH  090%=      5-min Rain = 0
KHRS 201300Z 19009KT M04/M05 A3021 RMK A01 T10351050  RH  090%=      5-min Rain = 0
KHRS 201305Z 20008KT M04/M05 A3021 RMK A01 T10371051  RH  091%=      5-min Rain = 0
KHRS 201310Z 19008KT M04/M05 A3021 RMK A01 T10371051  RH  091%=      5-min Rain = 0
KHRS 201315Z 20008KT M04/M05 A3021 RMK A01 T10381051  RH  092%=      5-min Rain = 0
KHRS 201320Z 19007KT M04/M05 A3021 RMK A01 T10381051  RH  092%=      5-min Rain = 0
KHRS 201325Z 19009KT M04/M05 A3021 RMK A01 T10381050  RH  092%=      5-min Rain = 0
KHRS 201330Z 20010KT M04/M05 A3021 RMK A01 T10361049  RH  092%=      5-min Rain = 0
KHRS 201335Z 20009KT M04/M05 A3021 RMK A01 T10361050  RH  091%=      5-min Rain = 0
KHRS 201340Z 20010KT M04/M05 A302 RMK A01 T10351049  RH  091%=      5-min Rain = 0
KHRS 201345Z 20010KT M04/M05 A3021 RMK A01 T10361050  RH  091%=      5-min Rain = 0
KHRS 201350Z 20009KT M04/M05 A3021 RMK A01 T10361050  RH  091%=      5-min Rain = 0
KHRS 201355Z 21007KT M04/M05 A3021 RMK A01 T10361051  RH  091%=      5-min Rain = 0
KHRS 201400Z 21007KT M04/M05 A3021 RMK A01 T10371051  RH  091%=      5-min Rain = 0
KHRS 201405Z 20007KT M04/M05 A3021 RMK A01 T10381053  RH  091%=      5-min Rain = 0
KHRS 201410Z 21007KT M04/M05 A3021 RMK A01 T10381051  RH  091%=      5-min Rain = 0
KHRS 201415Z 21009KT M04/M05 A3021 RMK A01 T10361050  RH  091%=      5-min Rain = 0
KHRS 201420Z 21009KT M03/M05 A3021 RMK A01 T10341047  RH  091%=      5-min Rain = 0
KHRS 201425Z 21009KT M03/M05 A3021 RMK A01 T10311045  RH  091%=      5-min Rain = 0
KHRS 201430Z 21008KT M03/M04 A3021 RMK A01 T10291044  RH  091%=      5-min Rain = 0
KHRS 201435Z 21009KT M03/M04 A3021 RMK A01 T10281043  RH  090%=      5-min Rain = 0
KHRS 201440Z 21009KT M03/M04 A302 RMK A01 T10271043  RH  090%=      5-min Rain = 0
KHRS 201445Z 20008KT M03/M04 A302 RMK A01 T10261042  RH  090%=      5-min Rain = 0
KHRS 201450Z 21008KT M02/M04 A302 RMK A01 T10241040  RH  090%=      5-min Rain = 0
KHRS 201455Z 21008KT M02/M04 A3021 RMK A01 T10221039  RH  089%=      5-min Rain = 0
KHRS 201500Z 21009KT M02/M04 A3021 RMK A01 T10191036  RH  089%=      5-min Rain = 0
KHRS 201505Z 20010KT M02/M03 A3021 RMK A01 T10151034  RH  087%=      5-min Rain = 0
KHRS 201510Z 21010KT M01/M03 A3021 RMK A01 T10101032  RH  086%=      5-min Rain = 0
KHRS 201515Z 20010KT M01/M03 A3021 RMK A01 T10071031  RH  085%=      5-min Rain = 0
KHRS 201520Z 20011G17KT M00/M03 A3021 RMK A01 T10031028  RH  084%=      5-min Rain = 0
KHRS 201525Z 20012KT 00/M03 A3021 RMK A01 T00011026  RH  083%=      5-min Rain = 0
KHRS 201530Z 20012G17KT 01/M02 A3021 RMK A01 T00051024  RH  082%=      5-min Rain = 0
KHRS 201535Z 20012KT 01/M02 A302 RMK A01 T00101020  RH  081%=      5-min Rain = 0
KHRS 201540Z 20014KT 01/M02 A302 RMK A01 T00141019  RH  080%=      5-min Rain = 0
KHRS 201545Z 20014KT 02/M02 A302 RMK A01 T00161019  RH  078%=      5-min Rain = 0
KHRS 201550Z 20013KT 02/M02 A302 RMK A01 T00181018  RH  078%=      5-min Rain = 0
KHRS 201555Z 20012KT 02/M02 A302 RMK A01 T00201017  RH  078%=      5-min Rain = 0
KHRS 201600Z 20013G18KT 02/M02 A302 RMK A01 T00241015  RH  076%=      5-min Rain = 0
KHRS 201605Z 19014KT 03/M02 A302 RMK A01 T00271017  RH  074%=      5-min Rain = 0
KHRS 201610Z 20014G19KT 03/M02 A302 RMK A01 T00301017  RH  072%=      5-min Rain = 0
KHRS 201615Z 19014KT 03/M02 A302 RMK A01 T00301018  RH  071%=      5-min Rain = 0
KHRS 201620Z 20012KT 03/M02 A3019 RMK A01 T00301017  RH  072%=      5-min Rain = 0
KHRS 201625Z 20013KT 03/M02 A302 RMK A01 T00321017  RH  071%=      5-min Rain = 0
KHRS 201630Z 20015KT 04/M02 A302 RMK A01 T00371015  RH  069%=      5-min Rain = 0
KHRS 201635Z 20015KT 04/M01 A3019 RMK A01 T00421014  RH  067%=      5-min Rain = 0
KHRS 201640Z 20014KT 04/M02 A3019 RMK A01 T00441016  RH  066%=      5-min Rain = 0
KHRS 201645Z 20014KT 04/M02 A3019 RMK A01 T00441015  RH  066%=      5-min Rain = 0
KHRS 201650Z 20015KT 05/M02 A3019 RMK A01 T00491015  RH  064%=      5-min Rain = 0
KHRS 201655Z 21014G19KT 06/M01 A3018 RMK A01 T00551014  RH  062%=      5-min Rain = 0
KHRS 201700Z 21016KT 06/M02 A3018 RMK A01 T00571016  RH  060%=      5-min Rain = 0
KHRS 201705Z 21016KT 06/M02 A3018 RMK A01 T00591018  RH  058%=      5-min Rain = 0
KHRS 201710Z 21014G19KT 06/M02 A3017 RMK A01 T00631016  RH  058%=      5-min Rain = 0
KHRS 201715Z 21015KT 07/M02 A3017 RMK A01 T00661016  RH  056%=      5-min Rain = 0
KHRS 201720Z 21015KT 07/M02 A3017 RMK A01 T00671018  RH  055%=      5-min Rain = 0
KHRS 201725Z 21015KT 07/M02 A3017 RMK A01 T00721017  RH  054%=      5-min Rain = 0
KHRS 201730Z 21015KT 07/M02 A3017 RMK A01 T00721016  RH  054%=      5-min Rain = 0
KHRS 201735Z 22014KT 08/M02 A3017 RMK A01 T00751015  RH  053%=      5-min Rain = 0
KHRS 201740Z 21013KT 08/M01 A3017 RMK A01 T00821013  RH  052%=      5-min Rain = 0
KHRS 201745Z 21013KT 08/M02 A3017 RMK A01 T00841018  RH  049%=      5-min Rain = 0
KHRS 201750Z 21014KT 09/M02 A3017 RMK A01 T00871020  RH  047%=      5-min Rain = 0
KHRS 201755Z 22013KT 09/M02 A3017 RMK A01 T00911021  RH  046%=      5-min Rain = 0
KHRS 201800Z 22012KT 09/M02 A3016 RMK A01 T00921021  RH  045%=      5-min Rain = 0
KHRS 201805Z 22012KT 09/M02 A3016 RMK A01 T00941019  RH  046%=      5-min Rain = 0
KHRS 201810Z 21013KT 09/M02 A3016 RMK A01 T00941023  RH  044%=      5-min Rain = 0
KHRS 201815Z 22011G16KT 10/M02 A3016 RMK A01 T00951020  RH  045%=      5-min Rain = 0
KHRS 201820Z 22012KT 10/M02 A3016 RMK A01 T00991022  RH  043%=      5-min Rain = 0
KHRS 201825Z 22013KT 10/M02 A3016 RMK A01 T01021023  RH  042%=      5-min Rain = 0
KHRS 201830Z 22012KT 10/M02 A3015 RMK A01 T01001024  RH  042%=      5-min Rain = 0
KHRS 201835Z 22012KT 10/M02 A3015 RMK A01 T01001024  RH  042%=      5-min Rain = 0
KHRS 201840Z 21011KT 10/M02 A3014 RMK A01 T01031023  RH  042%=      5-min Rain = 0
KHRS 201845Z 21011KT 11/M02 A3014 RMK A01 T01101023  RH  040%=      5-min Rain = 0
KHRS 201850Z 22013KT 12/M03 A3013 RMK A01 T01151032  RH  036%=      5-min Rain = 0
KHRS 201855Z 22014G20KT 11/M04 A3012 RMK A01 T01131037  RH  035%=      5-min Rain = 0
KHRS 201900Z 22013G18KT 11/M04 A3012 RMK A01 T01131039  RH  035%=      5-min Rain = 0
KHRS 201905Z 22013KT 12/M04 A3012 RMK A01 T01161037  RH  034%=      5-min Rain = 0
KHRS 201910Z 22014KT 12/M04 A3012 RMK A01 T01211035  RH  034%=      5-min Rain = 0
KHRS 201915Z 21015G20KT 12/M04 A3011 RMK A01 T01211039  RH  033%=      5-min Rain = 0
KHRS 201920Z 22014KT 12/M04 A3011 RMK A01 T01201036  RH  034%=      5-min Rain = 0
KHRS 201925Z 22013KT 12/M04 A3011 RMK A01 T01241035  RH  033%=      5-min Rain = 0
KHRS 201930Z 22012G18KT 13/M04 A301 RMK A01 T01261035  RH  033%=      5-min Rain = 0
KHRS 201935Z 22015G20KT 13/M04 A301 RMK A01 T01291037  RH  032%=      5-min Rain = 0
KHRS 201940Z 22015KT 13/M04 A301 RMK A01 T01291037  RH  032%=      5-min Rain = 0
KHRS 201945Z 23013G18KT 13/M03 A3009 RMK A01 T01321034  RH  032%=      5-min Rain = 0
KHRS 201950Z 22014G19KT 13/M03 A3009 RMK A01 T01341034  RH  031%=      5-min Rain = 0
KHRS 201955Z 23015G20KT 14/M04 A3009 RMK A01 T01351035  RH  031%=      5-min Rain = 0
KHRS 202000Z 23015G22KT 14/M04 A3009 RMK A01 T01361036  RH  031%=      5-min Rain = 0
KHRS 202005Z 23015G20KT 13/M04 A3009 RMK A01 T01341038  RH  030%=      5-min Rain = 0
KHRS 202010Z 23016G23KT 13/M04 A3008 RMK A01 T01341042  RH  029%=      5-min Rain = 0
KHRS 202015Z 24014KT 13/M04 A3008 RMK A01 T01321035  RH  031%=      5-min Rain = 0
KHRS 202020Z 23014KT 14/M04 A3007 RMK A01 T01361035  RH  031%=      5-min Rain = 0
KHRS 202025Z 24015G20KT 14/M04 A3007 RMK A01 T01411037  RH  029%=      5-min Rain = 0
KHRS 202030Z 24016KT 14/M03 A3007 RMK A01 T01381034  RH  031%=      5-min Rain = 0
KHRS 202035Z 24016G23KT 14/M03 A3007 RMK A01 T01371029  RH  032%=      5-min Rain = 0
KHRS 202040Z 24014G19KT 14/M03 A3006 RMK A01 T01371032  RH  031%=      5-min Rain = 0
KHRS 202045Z 24016KT 14/M03 A3006 RMK A01 T01401030  RH  031%=      5-min Rain = 0
KHRS 202050Z 24014G19KT 14/M03 A3006 RMK A01 T01411032  RH  030%=      5-min Rain = 0
KHRS 202055Z 24013G18KT 15/M03 A3006 RMK A01 T01461032  RH  029%=      5-min Rain = 0
KHRS 202100Z 24012G18KT 15/M03 A3006 RMK A01 T01491032  RH  029%=      5-min Rain = 0
KHRS 202105Z 24013G18KT 15/M03 A3005 RMK A01 T01491029  RH  029%=      5-min Rain = 0
KHRS 202110Z 24013G19KT 15/M03 A3005 RMK A01 T01501032  RH  029%=      5-min Rain = 0
KHRS 202115Z 24013KT 15/M04 A3005 RMK A01 T01501035  RH  028%=      5-min Rain = 0
KHRS 202120Z 24011G16KT 15/M03 A3005 RMK A01 T01541030  RH  028%=      5-min Rain = 0
KHRS 202125Z 25013KT 15/M02 A3004 RMK A01 T01531024  RH  030%=      5-min Rain = 0
KHRS 202130Z 24015KT 16/M04 A3004 RMK A01 T01581036  RH  026%=      5-min Rain = 0
KHRS 202135Z 24013G19KT 16/M03 A3004 RMK A01 T01571033  RH  027%=      5-min Rain = 0
KHRS 202140Z 24014KT 16/M04 A3004 RMK A01 T01551038  RH  027%=      5-min Rain = 0
KHRS 202145Z 23014G19KT 16/M04 A3004 RMK A01 T01571041  RH  026%=      5-min Rain = 0
KHRS 202150Z 24015KT 16/M04 A3004 RMK A01 T01561036  RH  027%=      5-min Rain = 0
KHRS 202155Z 24015KT 16/M04 A3004 RMK A01 T01571039  RH  026%=      5-min Rain = 0
KHRS 202200Z 24014KT 16/M04 A3004 RMK A01 T01571035  RH  027%=      5-min Rain = 0
KHRS 202205Z 24014G19KT 16/M03 A3004 RMK A01 T01621030  RH  027%=      5-min Rain = 0
KHRS 202210Z 23014G20KT 16/M04 A3004 RMK A01 T01621035  RH  026%=      5-min Rain = 0
KHRS 202215Z 24012KT 16/M03 A3004 RMK A01 T01611028  RH  028%=      5-min Rain = 0
KHRS 202220Z 24014KT 16/M03 A3004 RMK A01 T01621029  RH  027%=      5-min Rain = 0
KHRS 202225Z 24012KT 16/M03 A3004 RMK A01 T01611028  RH  028%=      5-min Rain = 0
KHRS 202230Z 24012KT 16/M03 A3004 RMK A01 T01611025  RH  028%=      5-min Rain = 0
KHRS 202235Z 24012KT 16/M03 A3004 RMK A01 T01631030  RH  027%=      5-min Rain = 0
KHRS 202240Z 24011KT 16/M02 A3004 RMK A01 T01611023  RH  028%=      5-min Rain = 0
KHRS 202245Z 24011KT 16/M03 A3004 RMK A01 T01601025  RH  028%=      5-min Rain = 0
KHRS 202250Z 24009KT 16/M03 A3003 RMK A01 T01631027  RH  027%=      5-min Rain = 0
KHRS 202255Z 24010KT 16/M02 A3003 RMK A01 T01621024  RH  028%=      5-min Rain = 0
KHRS 202300Z 24009G15KT 16/M02 A3003 RMK A01 T01621023  RH  028%=      5-min Rain = 0
KHRS 202305Z 24010G15KT 16/M03 A3003 RMK A01 T01611026  RH  028%=      5-min Rain = 0
KHRS 202310Z 24010KT 16/M02 A3003 RMK A01 T01591024  RH  029%=      5-min Rain = 0
KHRS 202315Z 24007KT 16/M02 A3003 RMK A01 T01561022  RH  030%=      5-min Rain = 0
KHRS 202320Z 24006KT 15/M02 A3002 RMK A01 T01511023  RH  030%=      5-min Rain = 0
KHRS 202325Z 23006KT 15/M02 A3002 RMK A01 T01451022  RH  032%=      5-min Rain = 0
KHRS 202330Z 23006KT 14/M02 A3002 RMK A01 T01401024  RH  032%=      5-min Rain = 0
KHRS 202335Z 23005KT 14/M02 A3002 RMK A01 T01391024  RH  033%=      5-min Rain = 0
KHRS 202340Z 22005KT 14/M02 A3002 RMK A01 T01391024  RH  033%=      5-min Rain = 0
KHRS 202345Z 23004KT 14/M02 A3002 RMK A01 T01401024  RH  032%=      5-min Rain = 0
KHRS 202350Z 22004KT 14/M03 A3002 RMK A01 T01371026  RH  033%=      5-min Rain = 0
KHRS 202355Z 22005KT 13/M03 A3002 RMK A01 T01331029  RH  033%=      5-min Rain = 0
KHRS 210000Z 22007KT 13/M03 A3002 RMK A01 T01291029  RH  034%=      5-min Rain = 0
KHRS 210005Z 21007KT 12/M03 A3002 RMK A01 T01221030  RH  035%=      5-min Rain = 0
KHRS 210010Z 21006KT 11/M03 A3002 RMK A01 T01131027  RH  038%=      5-min Rain = 0
KHRS 210015Z 21006KT 11/M03 A3002 RMK A01 T01131028  RH  038%=      5-min Rain = 0
KHRS 210020Z 21006KT 11/M03 A3002 RMK A01 T01141029  RH  037%=      5-min Rain = 0
KHRS 210025Z 20005KT 11/M03 A3002 RMK A01 T01111027  RH  038%=      5-min Rain = 0
KHRS 210030Z 20006KT 11/M03 A3002 RMK A01 T01081028  RH  039%=      5-min Rain = 0
KHRS 210035Z 20007KT 10/M03 A3002 RMK A01 T01021030  RH  040%=      5-min Rain = 0
KHRS 210040Z 19008KT 10/M03 A3002 RMK A01 T01011027  RH  041%=      5-min Rain = 0
KHRS 210045Z 19008KT 10/M03 A3002 RMK A01 T01031029  RH  040%=      5-min Rain = 0
KHRS 210050Z 19006KT 10/M03 A3002 RMK A01 T01011028  RH  041%=      5-min Rain = 0
KHRS 210055Z 16006KT 10/M03 A3002 RMK A01 T00951029  RH  042%=      5-min Rain = 0
KHRS 210100Z 16006KT 08/M03 A3002 RMK A01 T00831030  RH  045%=      5-min Rain = 0
KHRS 210105Z 17007KT 08/M03 A3002 RMK A01 T00761032  RH  047%=      5-min Rain = 0
KHRS 210110Z 17007KT 08/M03 A3001 RMK A01 T00781032  RH  046%=      5-min Rain = 0
KHRS 210115Z 17007KT 08/M04 A3001 RMK A01 T00821035  RH  044%=      5-min Rain = 0
KHRS 210120Z 17006KT 08/M04 A3001 RMK A01 T00821037  RH  043%=      5-min Rain = 0
KHRS 210125Z 17006KT 08/M04 A3001 RMK A01 T00801037  RH  044%=      5-min Rain = 0
KHRS 210130Z 17008KT 08/M04 A3001 RMK A01 T00801039  RH  043%=      5-min Rain = 0
KHRS 210135Z 17009KT 08/M04 A3001 RMK A01 T00811042  RH  042%=      5-min Rain = 0
KHRS 210140Z 17008KT 08/M04 A3001 RMK A01 T00811044  RH  041%=      5-min Rain = 0
KHRS 210145Z 17008KT 08/M04 A3001 RMK A01 T00781044  RH  042%=      5-min Rain = 0
KHRS 210150Z 17009KT 08/M04 A3001 RMK A01 T00751044  RH  043%=      5-min Rain = 0
KHRS 210155Z 17008KT 07/M04 A30 RMK A01 T00731044  RH  044%=      5-min Rain = 0
KHRS 210200Z 17007KT 07/M04 A30 RMK A01 T00701044  RH  045%=      5-min Rain = 0
KHRS 210205Z 18008KT 07/M04 A30 RMK A01 T00701043  RH  045%=      5-min Rain = 0
KHRS 210210Z 17006KT 07/M04 A30 RMK A01 T00741043  RH  044%=      5-min Rain = 0
KHRS 210215Z 17007KT 07/M04 A30 RMK A01 T00711044  RH  044%=      5-min Rain = 0
KHRS 210220Z 17007KT 07/M04 A30 RMK A01 T00681044  RH  045%=      5-min Rain = 0
KHRS 210225Z 17006KT 07/M04 A30 RMK A01 T00651043  RH  046%=      5-min Rain = 0
KHRS 210230Z 17006KT 06/M04 A30 RMK A01 T00631044  RH  047%=      5-min Rain = 0
KHRS 210235Z 17006KT 06/M04 A30 RMK A01 T00611044  RH  048%=      5-min Rain = 0
KHRS 210240Z 17006KT 06/M04 A30 RMK A01 T00591044  RH  048%=      5-min Rain = 0
KHRS 210245Z 16007KT 06/M04 A30 RMK A01 T00561044  RH  049%=      5-min Rain = 0
KHRS 210250Z 17007KT 05/M05 A30 RMK A01 T00531046  RH  049%=      5-min Rain = 0
KHRS 210255Z 17006G11KT 05/M05 A30 RMK A01 T00521046  RH  050%=      5-min Rain = 0
KHRS 210300Z 17007KT 05/M05 A30 RMK A01 T00531046  RH  049%=      5-min Rain = 0
KHRS 210305Z 17006KT 05/M05 A30 RMK A01 T00531046  RH  049%=      5-min Rain = 0
KHRS 210310Z 18005KT 05/M05 A2999 RMK A01 T00531046  RH  049%=      5-min Rain = 0
KHRS 210315Z 18007KT 05/M05 A2999 RMK A01 T00531047  RH  049%=      5-min Rain = 0
KHRS 210320Z 18008KT 05/M05 A2999 RMK A01 T00541047  RH  049%=      5-min Rain = 0
KHRS 210325Z 18008KT 06/M05 A2999 RMK A01 T00591048  RH  047%=      5-min Rain = 0
KHRS 210330Z 19009KT 06/M05 A2999 RMK A01 T00621048  RH  046%=      5-min Rain = 0
KHRS 210335Z 19009KT 06/M05 A2999 RMK A01 T00591049  RH  046%=      5-min Rain = 0
KHRS 210340Z 19010KT 06/M05 A2998 RMK A01 T00561049  RH  047%=      5-min Rain = 0
KHRS 210345Z 19011KT 05/M05 A2998 RMK A01 T00531049  RH  048%=      5-min Rain = 0
KHRS 210350Z 19011KT 05/M05 A2998 RMK A01 T00501049  RH  049%=      5-min Rain = 0
KHRS 210355Z 19010KT 05/M05 A2998 RMK A01 T00481050  RH  050%=      5-min Rain = 0
KHRS 210400Z 20010KT 05/M05 A2998 RMK A01 T00451050  RH  051%=      5-min Rain = 0
KHRS 210405Z 20010KT 04/M05 A2998 RMK A01 T00431050  RH  051%=      5-min Rain = 0
KHRS 210410Z 21009KT 04/M05 A2998 RMK A01 T00411051  RH  052%=      5-min Rain = 0
KHRS 210415Z 20009KT 04/M05 A2998 RMK A01 T00361052  RH  053%=      5-min Rain = 0
KHRS 210420Z 20010KT 03/M05 A2998 RMK A01 T00311051  RH  056%=      5-min Rain = 0
KHRS 210425Z 21009KT 03/M05 A2998 RMK A01 T00311051  RH  056%=      5-min Rain = 0
KHRS 210430Z 21007KT 03/M05 A2998 RMK A01 T00301052  RH  056%=      5-min Rain = 0
KHRS 210435Z 21008KT 03/M05 A2998 RMK A01 T00291052  RH  056%=      5-min Rain = 0
KHRS 210440Z 21007KT 03/M05 A2998 RMK A01 T00281052  RH  056%=      5-min Rain = 0
KHRS 210445Z 21007KT 03/M05 A2998 RMK A01 T00271052  RH  057%=      5-min Rain = 0
KHRS 210450Z 21007KT 03/M05 A2998 RMK A01 T00261052  RH  057%=      5-min Rain = 0
KHRS 210455Z 22006KT 02/M05 A2998 RMK A01 T00231052  RH  058%=      5-min Rain = 0
KHRS 210500Z 23005KT 02/M05 A2998 RMK A01 T00191050  RH  061%=      5-min Rain = 0
KHRS 210505Z 23006KT 02/M05 A2998 RMK A01 T00161048  RH  063%=      5-min Rain = 0
KHRS 210510Z 21006KT 01/M05 A2998 RMK A01 T00141052  RH  062%=      5-min Rain = 0
KHRS 210515Z 21006KT 01/M05 A2998 RMK A01 T00131053  RH  062%=      5-min Rain = 0
KHRS 210520Z 21006KT 01/M05 A2998 RMK A01 T00141053  RH  062%=      5-min Rain = 0
KHRS 210525Z 22007KT 02/M05 A2998 RMK A01 T00161051  RH  062%=      5-min Rain = 0
KHRS 210530Z 22008KT 02/M05 A2998 RMK A01 T00191050  RH  061%=      5-min Rain = 0
KHRS 210535Z 22008KT 02/M05 A2998 RMK A01 T00181050  RH  061%=      5-min Rain = 0
KHRS 210540Z 22008KT 01/M05 A2998 RMK A01 T00141051  RH  063%=      5-min Rain = 0
KHRS 210545Z 22008KT 01/M05 A2998 RMK A01 T00111051  RH  064%=      5-min Rain = 0
KHRS 210550Z 23008KT 01/M05 A2998 RMK A01 T00101051  RH  064%=      5-min Rain = 0
KHRS 210555Z 23008KT 01/M05 A2997 RMK A01 T00131050  RH  063%=      5-min Rain = 0

Page generated in 0.0092 seconds.